sensor_id;sensor_type;location;lat;lon;timestamp;P1;durP1;ratioP1;P2;durP2;ratioP2
17796;SDS011;55596;53.554;9.916;2023-02-14T00:02:06;42.77;;;26.13;;
17796;SDS011;55596;53.554;9.916;2023-02-14T00:04:33;38.27;;;24.30;;
17796;SDS011;55596;53.554;9.916;2023-02-14T00:07:02;42.03;;;25.40;;
17796;SDS011;55596;53.554;9.916;2023-02-14T00:09:29;35.27;;;24.23;;
17796;SDS011;55596;53.554;9.916;2023-02-14T00:11:56;42.80;;;26.10;;
17796;SDS011;55596;53.554;9.916;2023-02-14T00:14:23;43.03;;;25.67;;
17796;SDS011;55596;53.554;9.916;2023-02-14T00:17:08;43.90;;;25.97;;
17796;SDS011;55596;53.554;9.916;2023-02-14T00:19:35;44.17;;;26.27;;
17796;SDS011;55596;53.554;9.916;2023-02-14T00:22:02;42.20;;;26.40;;
17796;SDS011;55596;53.554;9.916;2023-02-14T00:24:30;40.10;;;25.20;;
17796;SDS011;55596;53.554;9.916;2023-02-14T00:26:57;40.73;;;25.57;;
17796;SDS011;55596;53.554;9.916;2023-02-14T00:29:25;39.07;;;24.07;;
17796;SDS011;55596;53.554;9.916;2023-02-14T00:31:54;41.13;;;25.33;;
17796;SDS011;55596;53.554;9.916;2023-02-14T00:34:22;41.50;;;25.73;;
17796;SDS011;55596;53.554;9.916;2023-02-14T00:36:50;42.50;;;26.37;;
17796;SDS011;55596;53.554;9.916;2023-02-14T00:39:17;44.40;;;25.50;;
17796;SDS011;55596;53.554;9.916;2023-02-14T00:41:44;41.07;;;25.07;;
17796;SDS011;55596;53.554;9.916;2023-02-14T00:44:12;44.17;;;25.87;;
17796;SDS011;55596;53.554;9.916;2023-02-14T00:46:39;42.23;;;25.50;;
17796;SDS011;55596;53.554;9.916;2023-02-14T00:49:06;45.70;;;24.93;;
17796;SDS011;55596;53.554;9.916;2023-02-14T00:51:34;39.47;;;24.87;;
17796;SDS011;55596;53.554;9.916;2023-02-14T00:54:01;40.57;;;24.33;;
17796;SDS011;55596;53.554;9.916;2023-02-14T00:56:28;38.67;;;24.63;;
17796;SDS011;55596;53.554;9.916;2023-02-14T00:58:55;42.67;;;26.43;;
17796;SDS011;55596;53.554;9.916;2023-02-14T01:01:22;43.03;;;25.53;;
17796;SDS011;55596;53.554;9.916;2023-02-14T01:03:49;39.67;;;24.80;;
17796;SDS011;55596;53.554;9.916;2023-02-14T01:06:16;40.47;;;24.87;;
17796;SDS011;55596;53.554;9.916;2023-02-14T01:08:44;42.47;;;26.27;;
17796;SDS011;55596;53.554;9.916;2023-02-14T01:11:12;43.70;;;26.03;;
17796;SDS011;55596;53.554;9.916;2023-02-14T01:13:41;39.37;;;25.00;;
17796;SDS011;55596;53.554;9.916;2023-02-14T01:16:10;41.40;;;25.93;;
17796;SDS011;55596;53.554;9.916;2023-02-14T01:18:37;43.40;;;25.77;;
17796;SDS011;55596;53.554;9.916;2023-02-14T01:21:08;39.57;;;24.67;;
17796;SDS011;55596;53.554;9.916;2023-02-14T01:23:36;39.60;;;23.97;;
17796;SDS011;55596;53.554;9.916;2023-02-14T01:26:05;40.53;;;25.90;;
17796;SDS011;55596;53.554;9.916;2023-02-14T01:28:33;40.70;;;24.90;;
17796;SDS011;55596;53.554;9.916;2023-02-14T01:31:04;41.13;;;25.53;;
17796;SDS011;55596;53.554;9.916;2023-02-14T01:33:34;42.03;;;27.30;;
17796;SDS011;55596;53.554;9.916;2023-02-14T01:36:01;44.63;;;25.90;;
17796;SDS011;55596;53.554;9.916;2023-02-14T01:38:28;42.53;;;26.20;;
17796;SDS011;55596;53.554;9.916;2023-02-14T01:40:55;40.33;;;26.27;;
17796;SDS011;55596;53.554;9.916;2023-02-14T01:43:23;38.43;;;24.30;;
17796;SDS011;55596;53.554;9.916;2023-02-14T01:45:50;41.23;;;25.37;;
17796;SDS011;55596;53.554;9.916;2023-02-14T01:48:17;42.10;;;25.50;;
17796;SDS011;55596;53.554;9.916;2023-02-14T01:50:46;46.20;;;26.40;;
17796;SDS011;55596;53.554;9.916;2023-02-14T01:53:16;40.90;;;25.70;;
17796;SDS011;55596;53.554;9.916;2023-02-14T01:55:50;43.30;;;26.87;;
17796;SDS011;55596;53.554;9.916;2023-02-14T01:58:20;44.37;;;26.67;;
17796;SDS011;55596;53.554;9.916;2023-02-14T02:00:52;43.77;;;27.63;;
17796;SDS011;55596;53.554;9.916;2023-02-14T02:03:22;44.07;;;27.10;;
17796;SDS011;55596;53.554;9.916;2023-02-14T02:05:51;43.90;;;26.40;;
17796;SDS011;55596;53.554;9.916;2023-02-14T02:08:20;42.20;;;26.60;;
17796;SDS011;55596;53.554;9.916;2023-02-14T02:10:47;44.63;;;28.53;;
17796;SDS011;55596;53.554;9.916;2023-02-14T02:13:15;46.07;;;27.87;;
17796;SDS011;55596;53.554;9.916;2023-02-14T02:15:48;43.03;;;26.47;;
17796;SDS011;55596;53.554;9.916;2023-02-14T02:18:31;42.50;;;26.70;;
17796;SDS011;55596;53.554;9.916;2023-02-14T02:21:11;41.53;;;26.27;;
17796;SDS011;55596;53.554;9.916;2023-02-14T02:24:19;44.37;;;26.97;;
17796;SDS011;55596;53.554;9.916;2023-02-14T02:33:06;48.40;;;28.90;;
17796;SDS011;55596;53.554;9.916;2023-02-14T02:39:02;45.87;;;27.53;;
17796;SDS011;55596;53.554;9.916;2023-02-14T02:41:38;46.70;;;28.37;;
17796;SDS011;55596;53.554;9.916;2023-02-14T02:44:20;49.77;;;28.23;;
17796;SDS011;55596;53.554;9.916;2023-02-14T02:46:54;46.30;;;29.13;;
17796;SDS011;55596;53.554;9.916;2023-02-14T02:49:33;51.30;;;30.17;;
17796;SDS011;55596;53.554;9.916;2023-02-14T02:52:26;53.00;;;30.23;;
17796;SDS011;55596;53.554;9.916;2023-02-14T02:55:21;50.67;;;30.10;;
17796;SDS011;55596;53.554;9.916;2023-02-14T02:57:52;51.00;;;30.40;;
17796;SDS011;55596;53.554;9.916;2023-02-14T03:00:19;52.87;;;30.63;;
17796;SDS011;55596;53.554;9.916;2023-02-14T03:02:49;49.97;;;30.00;;
17796;SDS011;55596;53.554;9.916;2023-02-14T03:05:52;48.67;;;28.40;;
17796;SDS011;55596;53.554;9.916;2023-02-14T03:08:19;50.40;;;29.23;;
17796;SDS011;55596;53.554;9.916;2023-02-14T03:10:47;50.73;;;29.17;;
17796;SDS011;55596;53.554;9.916;2023-02-14T03:13:34;52.67;;;29.67;;
17796;SDS011;55596;53.554;9.916;2023-02-14T03:16:19;49.43;;;29.63;;
17796;SDS011;55596;53.554;9.916;2023-02-14T03:18:58;45.67;;;27.93;;
17796;SDS011;55596;53.554;9.916;2023-02-14T03:21:58;47.47;;;28.07;;
17796;SDS011;55596;53.554;9.916;2023-02-14T03:24:36;48.42;;;28.55;;
17796;SDS011;55596;53.554;9.916;2023-02-14T03:27:13;49.33;;;28.30;;
17796;SDS011;55596;53.554;9.916;2023-02-14T03:29:47;47.77;;;28.87;;
17796;SDS011;55596;53.554;9.916;2023-02-14T03:32:22;51.63;;;29.83;;
17796;SDS011;55596;53.554;9.916;2023-02-14T03:34:56;52.87;;;28.97;;
17796;SDS011;55596;53.554;9.916;2023-02-14T03:37:27;51.50;;;30.47;;
17796;SDS011;55596;53.554;9.916;2023-02-14T03:39:58;54.50;;;29.10;;
17796;SDS011;55596;53.554;9.916;2023-02-14T03:42:34;54.67;;;31.10;;
17796;SDS011;55596;53.554;9.916;2023-02-14T03:45:06;52.90;;;28.73;;
17796;SDS011;55596;53.554;9.916;2023-02-14T03:47:35;52.07;;;29.17;;
17796;SDS011;55596;53.554;9.916;2023-02-14T03:50:06;51.63;;;29.63;;
17796;SDS011;55596;53.554;9.916;2023-02-14T03:52:36;51.50;;;30.30;;
17796;SDS011;55596;53.554;9.916;2023-02-14T03:55:04;54.00;;;30.57;;
17796;SDS011;55596;53.554;9.916;2023-02-14T03:57:36;51.83;;;29.20;;
17796;SDS011;55596;53.554;9.916;2023-02-14T04:00:08;48.60;;;28.97;;
17796;SDS011;55596;53.554;9.916;2023-02-14T04:02:36;50.17;;;29.93;;
17796;SDS011;55596;53.554;9.916;2023-02-14T04:05:08;51.30;;;29.57;;
17796;SDS011;55596;53.554;9.916;2023-02-14T04:07:45;52.60;;;30.13;;
17796;SDS011;55596;53.554;9.916;2023-02-14T04:10:14;50.87;;;28.70;;
17796;SDS011;55596;53.554;9.916;2023-02-14T04:12:43;53.33;;;29.93;;
17796;SDS011;55596;53.554;9.916;2023-02-14T04:15:10;54.63;;;30.07;;
17796;SDS011;55596;53.554;9.916;2023-02-14T04:17:38;50.07;;;28.77;;
17796;SDS011;55596;53.554;9.916;2023-02-14T04:20:22;53.80;;;29.83;;
17796;SDS011;55596;53.554;9.916;2023-02-14T04:22:49;50.27;;;29.40;;
17796;SDS011;55596;53.554;9.916;2023-02-14T04:25:16;52.83;;;30.17;;
17796;SDS011;55596;53.554;9.916;2023-02-14T04:27:45;49.30;;;29.80;;
17796;SDS011;55596;53.554;9.916;2023-02-14T04:30:12;51.73;;;30.13;;
17796;SDS011;55596;53.554;9.916;2023-02-14T04:32:41;51.43;;;31.17;;
17796;SDS011;55596;53.554;9.916;2023-02-14T04:35:09;51.13;;;29.20;;
17796;SDS011;55596;53.554;9.916;2023-02-14T04:37:36;51.63;;;29.83;;
17796;SDS011;55596;53.554;9.916;2023-02-14T04:40:04;51.30;;;29.17;;
17796;SDS011;55596;53.554;9.916;2023-02-14T04:42:31;53.20;;;29.33;;
17796;SDS011;55596;53.554;9.916;2023-02-14T04:44:59;48.17;;;29.30;;
17796;SDS011;55596;53.554;9.916;2023-02-14T04:47:26;53.73;;;30.03;;
17796;SDS011;55596;53.554;9.916;2023-02-14T04:49:53;53.87;;;30.60;;
17796;SDS011;55596;53.554;9.916;2023-02-14T04:52:20;52.53;;;29.77;;
17796;SDS011;55596;53.554;9.916;2023-02-14T04:54:47;51.03;;;30.33;;
17796;SDS011;55596;53.554;9.916;2023-02-14T04:57:14;51.03;;;29.77;;
17796;SDS011;55596;53.554;9.916;2023-02-14T04:59:41;51.63;;;29.30;;
17796;SDS011;55596;53.554;9.916;2023-02-14T05:02:09;49.67;;;30.73;;
17796;SDS011;55596;53.554;9.916;2023-02-14T05:04:36;50.83;;;30.20;;
17796;SDS011;55596;53.554;9.916;2023-02-14T05:07:03;53.17;;;29.50;;
17796;SDS011;55596;53.554;9.916;2023-02-14T05:09:29;48.70;;;29.47;;
17796;SDS011;55596;53.554;9.916;2023-02-14T05:11:56;51.77;;;29.67;;
17796;SDS011;55596;53.554;9.916;2023-02-14T05:14:23;51.83;;;30.13;;
17796;SDS011;55596;53.554;9.916;2023-02-14T05:16:50;49.90;;;29.53;;
17796;SDS011;55596;53.554;9.916;2023-02-14T05:19:18;54.60;;;30.67;;
17796;SDS011;55596;53.554;9.916;2023-02-14T05:21:45;51.20;;;29.40;;
17796;SDS011;55596;53.554;9.916;2023-02-14T05:24:12;52.27;;;30.73;;
17796;SDS011;55596;53.554;9.916;2023-02-14T05:26:39;53.27;;;30.47;;
17796;SDS011;55596;53.554;9.916;2023-02-14T05:29:06;50.23;;;29.07;;
17796;SDS011;55596;53.554;9.916;2023-02-14T05:31:33;51.77;;;29.70;;
17796;SDS011;55596;53.554;9.916;2023-02-14T05:34:00;52.23;;;29.47;;
17796;SDS011;55596;53.554;9.916;2023-02-14T05:36:29;50.67;;;29.40;;
17796;SDS011;55596;53.554;9.916;2023-02-14T05:38:56;48.53;;;29.20;;
17796;SDS011;55596;53.554;9.916;2023-02-14T05:41:23;46.97;;;28.43;;
17796;SDS011;55596;53.554;9.916;2023-02-14T05:43:50;49.10;;;30.70;;
17796;SDS011;55596;53.554;9.916;2023-02-14T05:46:17;48.37;;;28.23;;
17796;SDS011;55596;53.554;9.916;2023-02-14T05:48:43;51.10;;;29.20;;
17796;SDS011;55596;53.554;9.916;2023-02-14T05:51:10;50.17;;;28.57;;
17796;SDS011;55596;53.554;9.916;2023-02-14T05:53:39;50.83;;;29.93;;
17796;SDS011;55596;53.554;9.916;2023-02-14T05:56:06;50.63;;;28.13;;
17796;SDS011;55596;53.554;9.916;2023-02-14T05:58:33;56.03;;;32.67;;
17796;SDS011;55596;53.554;9.916;2023-02-14T06:01:00;51.57;;;29.70;;
17796;SDS011;55596;53.554;9.916;2023-02-14T06:03:27;50.63;;;28.27;;
17796;SDS011;55596;53.554;9.916;2023-02-14T06:05:54;51.97;;;28.97;;
17796;SDS011;55596;53.554;9.916;2023-02-14T06:08:21;52.77;;;29.30;;
17796;SDS011;55596;53.554;9.916;2023-02-14T06:10:49;43.77;;;27.87;;
17796;SDS011;55596;53.554;9.916;2023-02-14T06:13:16;51.53;;;29.13;;
17796;SDS011;55596;53.554;9.916;2023-02-14T06:15:44;51.03;;;28.73;;
17796;SDS011;55596;53.554;9.916;2023-02-14T06:18:11;51.33;;;29.23;;
17796;SDS011;55596;53.554;9.916;2023-02-14T06:20:37;46.13;;;27.90;;
17796;SDS011;55596;53.554;9.916;2023-02-14T06:23:04;50.33;;;29.67;;
17796;SDS011;55596;53.554;9.916;2023-02-14T06:25:31;52.17;;;28.87;;
17796;SDS011;55596;53.554;9.916;2023-02-14T06:28:00;47.27;;;28.53;;
17796;SDS011;55596;53.554;9.916;2023-02-14T06:30:27;46.93;;;28.70;;
17796;SDS011;55596;53.554;9.916;2023-02-14T06:32:54;46.63;;;28.33;;
17796;SDS011;55596;53.554;9.916;2023-02-14T06:35:21;52.37;;;28.77;;
17796;SDS011;55596;53.554;9.916;2023-02-14T06:37:48;50.67;;;28.33;;
17796;SDS011;55596;53.554;9.916;2023-02-14T06:40:15;46.30;;;28.33;;
17796;SDS011;55596;53.554;9.916;2023-02-14T06:42:43;49.50;;;28.33;;
17796;SDS011;55596;53.554;9.916;2023-02-14T06:45:11;48.67;;;28.27;;
17796;SDS011;55596;53.554;9.916;2023-02-14T06:47:38;51.63;;;28.63;;
17796;SDS011;55596;53.554;9.916;2023-02-14T06:50:06;49.03;;;28.13;;
17796;SDS011;55596;53.554;9.916;2023-02-14T06:52:35;47.57;;;27.63;;
17796;SDS011;55596;53.554;9.916;2023-02-14T06:55:02;42.57;;;25.80;;
17796;SDS011;55596;53.554;9.916;2023-02-14T06:57:29;47.13;;;27.07;;
17796;SDS011;55596;53.554;9.916;2023-02-14T06:59:56;47.00;;;27.60;;
17796;SDS011;55596;53.554;9.916;2023-02-14T07:02:24;46.10;;;27.30;;
17796;SDS011;55596;53.554;9.916;2023-02-14T07:04:51;47.50;;;26.50;;
17796;SDS011;55596;53.554;9.916;2023-02-14T07:07:18;43.20;;;26.30;;
17796;SDS011;55596;53.554;9.916;2023-02-14T07:09:45;44.03;;;25.77;;
17796;SDS011;55596;53.554;9.916;2023-02-14T07:12:12;50.20;;;27.27;;
17796;SDS011;55596;53.554;9.916;2023-02-14T07:14:39;42.73;;;23.97;;
17796;SDS011;55596;53.554;9.916;2023-02-14T07:17:05;40.63;;;25.40;;
17796;SDS011;55596;53.554;9.916;2023-02-14T07:19:34;43.53;;;26.57;;
17796;SDS011;55596;53.554;9.916;2023-02-14T07:22:01;41.30;;;25.53;;
17796;SDS011;55596;53.554;9.916;2023-02-14T07:24:27;40.40;;;25.07;;
17796;SDS011;55596;53.554;9.916;2023-02-14T07:26:54;40.90;;;24.53;;
17796;SDS011;55596;53.554;9.916;2023-02-14T07:29:21;40.77;;;24.90;;
17796;SDS011;55596;53.554;9.916;2023-02-14T07:31:48;41.83;;;24.83;;
17796;SDS011;55596;53.554;9.916;2023-02-14T07:34:15;38.47;;;24.00;;
17796;SDS011;55596;53.554;9.916;2023-02-14T07:36:43;40.70;;;24.47;;
17796;SDS011;55596;53.554;9.916;2023-02-14T07:39:10;38.27;;;23.93;;
17796;SDS011;55596;53.554;9.916;2023-02-14T07:41:37;38.43;;;22.73;;
17796;SDS011;55596;53.554;9.916;2023-02-14T07:44:04;38.07;;;24.27;;
17796;SDS011;55596;53.554;9.916;2023-02-14T07:46:31;35.30;;;21.53;;
17796;SDS011;55596;53.554;9.916;2023-02-14T07:48:58;37.10;;;23.13;;
17796;SDS011;55596;53.554;9.916;2023-02-14T07:51:25;35.97;;;22.23;;
17796;SDS011;55596;53.554;9.916;2023-02-14T07:53:53;32.33;;;21.23;;
17796;SDS011;55596;53.554;9.916;2023-02-14T07:56:20;34.80;;;21.63;;
17796;SDS011;55596;53.554;9.916;2023-02-14T07:58:47;32.40;;;20.87;;
17796;SDS011;55596;53.554;9.916;2023-02-14T08:01:14;31.07;;;21.23;;
17796;SDS011;55596;53.554;9.916;2023-02-14T08:03:41;36.00;;;22.57;;
17796;SDS011;55596;53.554;9.916;2023-02-14T08:06:13;32.20;;;21.70;;
17796;SDS011;55596;53.554;9.916;2023-02-14T08:08:40;37.00;;;21.30;;
17796;SDS011;55596;53.554;9.916;2023-02-14T08:11:09;31.23;;;21.03;;
17796;SDS011;55596;53.554;9.916;2023-02-14T08:13:36;34.97;;;22.07;;
17796;SDS011;55596;53.554;9.916;2023-02-14T08:16:03;32.83;;;21.23;;
17796;SDS011;55596;53.554;9.916;2023-02-14T08:18:32;34.73;;;22.10;;
17796;SDS011;55596;53.554;9.916;2023-02-14T08:21:00;35.03;;;22.13;;
17796;SDS011;55596;53.554;9.916;2023-02-14T08:23:27;32.13;;;21.03;;
17796;SDS011;55596;53.554;9.916;2023-02-14T08:25:55;37.30;;;22.47;;
17796;SDS011;55596;53.554;9.916;2023-02-14T08:28:24;35.43;;;22.53;;
17796;SDS011;55596;53.554;9.916;2023-02-14T08:30:51;33.97;;;20.53;;
17796;SDS011;55596;53.554;9.916;2023-02-14T08:33:18;33.73;;;21.10;;
17796;SDS011;55596;53.554;9.916;2023-02-14T08:35:46;35.40;;;21.73;;
17796;SDS011;55596;53.554;9.916;2023-02-14T08:38:13;38.17;;;22.20;;
17796;SDS011;55596;53.554;9.916;2023-02-14T08:40:40;38.00;;;23.27;;
17796;SDS011;55596;53.554;9.916;2023-02-14T08:43:07;31.67;;;20.90;;
17796;SDS011;55596;53.554;9.916;2023-02-14T08:45:36;30.77;;;20.27;;
17796;SDS011;55596;53.554;9.916;2023-02-14T08:48:04;36.20;;;21.17;;
17796;SDS011;55596;53.554;9.916;2023-02-14T08:50:32;35.90;;;21.50;;
17796;SDS011;55596;53.554;9.916;2023-02-14T08:52:59;39.40;;;20.27;;
17796;SDS011;55596;53.554;9.916;2023-02-14T08:55:26;34.30;;;21.97;;
17796;SDS011;55596;53.554;9.916;2023-02-14T08:57:53;32.63;;;20.00;;
17796;SDS011;55596;53.554;9.916;2023-02-14T09:00:21;31.97;;;20.37;;
17796;SDS011;55596;53.554;9.916;2023-02-14T09:02:50;30.63;;;20.37;;
17796;SDS011;55596;53.554;9.916;2023-02-14T09:05:17;30.83;;;20.17;;
17796;SDS011;55596;53.554;9.916;2023-02-14T09:07:47;30.43;;;20.40;;
17796;SDS011;55596;53.554;9.916;2023-02-14T09:10:14;30.97;;;19.90;;
17796;SDS011;55596;53.554;9.916;2023-02-14T09:12:42;31.87;;;20.27;;
17796;SDS011;55596;53.554;9.916;2023-02-14T09:15:10;34.97;;;19.83;;
17796;SDS011;55596;53.554;9.916;2023-02-14T09:17:37;29.30;;;20.40;;
17796;SDS011;55596;53.554;9.916;2023-02-14T09:20:08;30.67;;;20.77;;
17796;SDS011;55596;53.554;9.916;2023-02-14T09:22:37;27.33;;;18.77;;
17796;SDS011;55596;53.554;9.916;2023-02-14T09:25:04;28.27;;;18.40;;
17796;SDS011;55596;53.554;9.916;2023-02-14T09:27:31;32.13;;;19.63;;
17796;SDS011;55596;53.554;9.916;2023-02-14T09:29:58;27.80;;;19.10;;
17796;SDS011;55596;53.554;9.916;2023-02-14T09:32:25;28.93;;;19.33;;
17796;SDS011;55596;53.554;9.916;2023-02-14T09:34:53;28.37;;;19.50;;
17796;SDS011;55596;53.554;9.916;2023-02-14T09:37:21;27.30;;;17.93;;
17796;SDS011;55596;53.554;9.916;2023-02-14T09:39:48;27.37;;;19.80;;
17796;SDS011;55596;53.554;9.916;2023-02-14T09:42:20;28.73;;;19.17;;
17796;SDS011;55596;53.554;9.916;2023-02-14T09:44:58;32.40;;;20.50;;
17796;SDS011;55596;53.554;9.916;2023-02-14T09:47:32;27.97;;;19.87;;
17796;SDS011;55596;53.554;9.916;2023-02-14T09:50:02;27.00;;;19.27;;
17796;SDS011;55596;53.554;9.916;2023-02-14T09:52:32;31.17;;;20.00;;
17796;SDS011;55596;53.554;9.916;2023-02-14T09:54:59;28.33;;;20.00;;
17796;SDS011;55596;53.554;9.916;2023-02-14T09:57:32;26.60;;;19.80;;
17796;SDS011;55596;53.554;9.916;2023-02-14T10:00:10;29.60;;;19.80;;
17796;SDS011;55596;53.554;9.916;2023-02-14T10:02:48;30.63;;;21.50;;
17796;SDS011;55596;53.554;9.916;2023-02-14T10:05:24;33.90;;;21.13;;
17796;SDS011;55596;53.554;9.916;2023-02-14T10:07:56;29.33;;;21.08;;
17796;SDS011;55596;53.554;9.916;2023-02-14T10:10:32;27.10;;;20.27;;
17796;SDS011;55596;53.554;9.916;2023-02-14T10:13:05;29.97;;;20.03;;
17796;SDS011;55596;53.554;9.916;2023-02-14T10:15:40;28.50;;;20.00;;
17796;SDS011;55596;53.554;9.916;2023-02-14T10:18:12;29.97;;;21.00;;
17796;SDS011;55596;53.554;9.916;2023-02-14T10:20:45;27.20;;;19.77;;
17796;SDS011;55596;53.554;9.916;2023-02-14T10:23:21;32.30;;;21.20;;
17796;SDS011;55596;53.554;9.916;2023-02-14T10:25:55;33.97;;;21.53;;
17796;SDS011;55596;53.554;9.916;2023-02-14T10:28:26;29.40;;;20.27;;
17796;SDS011;55596;53.554;9.916;2023-02-14T10:30:59;28.43;;;20.43;;
17796;SDS011;55596;53.554;9.916;2023-02-14T10:33:37;27.37;;;19.67;;
17796;SDS011;55596;53.554;9.916;2023-02-14T10:36:09;28.80;;;19.80;;
17796;SDS011;55596;53.554;9.916;2023-02-14T10:38:45;30.63;;;20.37;;
17796;SDS011;55596;53.554;9.916;2023-02-14T10:41:25;28.63;;;20.50;;
17796;SDS011;55596;53.554;9.916;2023-02-14T10:44:03;28.83;;;20.23;;
17796;SDS011;55596;53.554;9.916;2023-02-14T10:46:46;29.00;;;21.53;;
17796;SDS011;55596;53.554;9.916;2023-02-14T10:49:24;27.87;;;20.47;;
17796;SDS011;55596;53.554;9.916;2023-02-14T10:51:59;27.20;;;19.60;;
17796;SDS011;55596;53.554;9.916;2023-02-14T10:54:34;28.27;;;19.23;;
17796;SDS011;55596;53.554;9.916;2023-02-14T10:57:04;27.97;;;20.47;;
17796;SDS011;55596;53.554;9.916;2023-02-14T10:59:40;27.17;;;20.00;;
17796;SDS011;55596;53.554;9.916;2023-02-14T11:02:16;28.13;;;20.70;;
17796;SDS011;55596;53.554;9.916;2023-02-14T11:04:46;32.57;;;21.17;;
17796;SDS011;55596;53.554;9.916;2023-02-14T11:07:14;36.97;;;21.87;;
17796;SDS011;55596;53.554;9.916;2023-02-14T11:09:43;27.80;;;19.30;;
17796;SDS011;55596;53.554;9.916;2023-02-14T11:12:10;31.13;;;21.30;;
17796;SDS011;55596;53.554;9.916;2023-02-14T11:14:37;32.80;;;22.10;;
17796;SDS011;55596;53.554;9.916;2023-02-14T11:17:21;29.37;;;20.67;;
17796;SDS011;55596;53.554;9.916;2023-02-14T11:19:54;28.13;;;20.00;;
17796;SDS011;55596;53.554;9.916;2023-02-14T11:22:27;29.77;;;20.87;;
17796;SDS011;55596;53.554;9.916;2023-02-14T11:25:02;28.90;;;21.20;;
17796;SDS011;55596;53.554;9.916;2023-02-14T11:27:30;33.43;;;21.10;;
17796;SDS011;55596;53.554;9.916;2023-02-14T11:29:57;34.90;;;21.30;;
17796;SDS011;55596;53.554;9.916;2023-02-14T11:32:27;30.50;;;20.57;;
17796;SDS011;55596;53.554;9.916;2023-02-14T11:34:57;28.47;;;20.00;;
17796;SDS011;55596;53.554;9.916;2023-02-14T11:37:27;27.43;;;20.13;;
17796;SDS011;55596;53.554;9.916;2023-02-14T11:39:55;26.33;;;19.83;;
17796;SDS011;55596;53.554;9.916;2023-02-14T11:42:34;24.47;;;19.50;;
17796;SDS011;55596;53.554;9.916;2023-02-14T11:45:06;27.07;;;19.83;;
17796;SDS011;55596;53.554;9.916;2023-02-14T11:48:00;22.83;;;18.87;;
17796;SDS011;55596;53.554;9.916;2023-02-14T11:50:36;25.90;;;20.13;;
17796;SDS011;55596;53.554;9.916;2023-02-14T11:53:12;27.43;;;19.60;;
17796;SDS011;55596;53.554;9.916;2023-02-14T11:55:49;31.73;;;20.13;;
17796;SDS011;55596;53.554;9.916;2023-02-14T11:58:28;24.87;;;19.13;;
17796;SDS011;55596;53.554;9.916;2023-02-14T12:00:59;21.77;;;18.90;;
17796;SDS011;55596;53.554;9.916;2023-02-14T12:03:27;22.20;;;18.80;;
17796;SDS011;55596;53.554;9.916;2023-02-14T12:05:58;23.33;;;18.77;;
17796;SDS011;55596;53.554;9.916;2023-02-14T12:08:27;24.90;;;19.30;;
17796;SDS011;55596;53.554;9.916;2023-02-14T12:11:00;22.00;;;19.07;;
17796;SDS011;55596;53.554;9.916;2023-02-14T12:13:29;21.07;;;18.63;;
17796;SDS011;55596;53.554;9.916;2023-02-14T12:15:58;24.47;;;18.97;;
17796;SDS011;55596;53.554;9.916;2023-02-14T12:18:34;26.80;;;20.43;;
17796;SDS011;55596;53.554;9.916;2023-02-14T12:21:21;21.17;;;18.50;;
17796;SDS011;55596;53.554;9.916;2023-02-14T12:23:55;21.83;;;18.93;;
17796;SDS011;55596;53.554;9.916;2023-02-14T12:26:29;23.98;;;19.58;;
17796;SDS011;55596;53.554;9.916;2023-02-14T12:29:03;24.95;;;19.67;;
17796;SDS011;55596;53.554;9.916;2023-02-14T12:31:38;23.33;;;20.40;;
17796;SDS011;55596;53.554;9.916;2023-02-14T12:34:05;25.15;;;20.58;;
17796;SDS011;55596;53.554;9.916;2023-02-14T12:36:39;26.45;;;20.95;;
17796;SDS011;55596;53.554;9.916;2023-02-14T12:39:27;28.73;;;22.02;;
17796;SDS011;55596;53.554;9.916;2023-02-14T12:42:03;26.80;;;19.77;;
17796;SDS011;55596;53.554;9.916;2023-02-14T12:44:41;23.20;;;18.65;;
17796;SDS011;55596;53.554;9.916;2023-02-14T12:47:18;21.50;;;18.35;;
17796;SDS011;55596;53.554;9.916;2023-02-14T12:55:50;22.05;;;18.83;;
17796;SDS011;55596;53.554;9.916;2023-02-14T12:58:27;21.70;;;18.38;;
17796;SDS011;55596;53.554;9.916;2023-02-14T13:01:12;22.58;;;17.55;;
17796;SDS011;55596;53.554;9.916;2023-02-14T13:04:08;20.05;;;17.60;;
17796;SDS011;55596;53.554;9.916;2023-02-14T13:06:58;22.73;;;19.10;;
17796;SDS011;55596;53.554;9.916;2023-02-14T13:09:31;19.65;;;17.23;;
17796;SDS011;55596;53.554;9.916;2023-02-14T13:12:09;22.20;;;18.23;;
17796;SDS011;55596;53.554;9.916;2023-02-14T13:14:51;30.05;;;19.05;;
17796;SDS011;55596;53.554;9.916;2023-02-14T13:17:29;19.90;;;17.85;;
17796;SDS011;55596;53.554;9.916;2023-02-14T13:20:03;21.90;;;18.17;;
17796;SDS011;55596;53.554;9.916;2023-02-14T13:22:48;21.70;;;18.02;;
17796;SDS011;55596;53.554;9.916;2023-02-14T13:25:19;19.50;;;17.45;;
17796;SDS011;55596;53.554;9.916;2023-02-14T13:27:55;19.88;;;17.88;;
17796;SDS011;55596;53.554;9.916;2023-02-14T13:30:25;19.77;;;17.73;;
17796;SDS011;55596;53.554;9.916;2023-02-14T13:32:57;21.27;;;17.27;;
17796;SDS011;55596;53.554;9.916;2023-02-14T13:35:28;19.58;;;17.45;;
17796;SDS011;55596;53.554;9.916;2023-02-14T13:37:57;19.75;;;15.50;;
17796;SDS011;55596;53.554;9.916;2023-02-14T13:40:28;17.67;;;15.68;;
17796;SDS011;55596;53.554;9.916;2023-02-14T13:42:57;20.13;;;16.58;;
17796;SDS011;55596;53.554;9.916;2023-02-14T13:48:19;22.15;;;18.92;;
17796;SDS011;55596;53.554;9.916;2023-02-14T13:50:48;18.33;;;16.42;;
17796;SDS011;55596;53.554;9.916;2023-02-14T13:58:56;20.20;;;16.48;;
17796;SDS011;55596;53.554;9.916;2023-02-14T14:01:32;22.58;;;16.67;;
17796;SDS011;55596;53.554;9.916;2023-02-14T14:04:03;17.95;;;16.05;;
17796;SDS011;55596;53.554;9.916;2023-02-14T14:12:37;23.30;;;16.00;;
17796;SDS011;55596;53.554;9.916;2023-02-14T14:15:09;28.42;;;17.52;;
17796;SDS011;55596;53.554;9.916;2023-02-14T14:17:44;18.05;;;16.08;;
17796;SDS011;55596;53.554;9.916;2023-02-14T14:20:37;18.50;;;16.50;;
17796;SDS011;55596;53.554;9.916;2023-02-14T14:23:23;19.33;;;17.08;;
17796;SDS011;55596;53.554;9.916;2023-02-14T14:26:03;19.98;;;16.50;;
17796;SDS011;55596;53.554;9.916;2023-02-14T14:28:59;24.25;;;18.98;;
17796;SDS011;55596;53.554;9.916;2023-02-14T14:31:26;20.67;;;16.70;;
17796;SDS011;55596;53.554;9.916;2023-02-14T14:33:57;18.98;;;16.85;;
17796;SDS011;55596;53.554;9.916;2023-02-14T14:36:27;20.15;;;17.27;;
17796;SDS011;55596;53.554;9.916;2023-02-14T14:38:54;18.30;;;16.40;;
17796;SDS011;55596;53.554;9.916;2023-02-14T14:41:25;18.52;;;16.42;;
17796;SDS011;55596;53.554;9.916;2023-02-14T14:43:53;19.08;;;16.38;;
17796;SDS011;55596;53.554;9.916;2023-02-14T14:46:20;17.33;;;15.52;;
17796;SDS011;55596;53.554;9.916;2023-02-14T14:48:49;18.02;;;16.05;;
17796;SDS011;55596;53.554;9.916;2023-02-14T14:51:22;18.80;;;16.00;;
17796;SDS011;55596;53.554;9.916;2023-02-14T14:53:53;19.58;;;16.58;;
17796;SDS011;55596;53.554;9.916;2023-02-14T14:56:22;27.05;;;16.70;;
17796;SDS011;55596;53.554;9.916;2023-02-14T14:58:51;18.17;;;16.05;;
17796;SDS011;55596;53.554;9.916;2023-02-14T15:01:28;18.60;;;16.60;;
17796;SDS011;55596;53.554;9.916;2023-02-14T15:04:07;18.73;;;15.57;;
17796;SDS011;55596;53.554;9.916;2023-02-14T15:06:40;20.73;;;15.43;;
17796;SDS011;55596;53.554;9.916;2023-02-14T15:09:13;18.95;;;16.13;;
17796;SDS011;55596;53.554;9.916;2023-02-14T15:11:41;19.67;;;15.88;;
17796;SDS011;55596;53.554;9.916;2023-02-14T15:14:27;19.42;;;16.98;;